Time;durP1;ratioP1;P1;durP2;ratioP2;P2;SDS_P1;SDS_P2;PMS_P1;PMS_P2;Temp;Humidity;BMP_temperature;BMP_pressure;BME280_temperature;BME280_humidity;BME280_pressure;Samples;Min_cycle;Max_cycle;Signal;HPM_P1;HPM_P2
2024/01/05 00:01:24;;;;;;;4.43;3.25;;;4.40;99.90;;;;;;4987335;28;20042;-74
2024/01/05 00:03:50;;;;;;;2.47;2.22;;;4.40;99.90;;;;;;4984655;28;20053;-73
2024/01/05 00:06:15;;;;;;;2.30;1.75;;;4.30;99.90;;;;;;4987932;28;20134;-73
2024/01/05 00:08:41;;;;;;;3.75;1.83;;;4.30;99.90;;;;;;4999826;28;20081;-73
2024/01/05 00:11:06;;;;;;;3.20;2.30;;;4.30;99.90;;;;;;4999747;28;20507;-73
2024/01/05 00:13:32;;;;;;;5.05;2.67;;;4.30;99.90;;;;;;4984246;28;20054;-74
2024/01/05 00:15:57;;;;;;;4.00;1.60;;;4.30;99.90;;;;;;4984870;28;20049;-74
2024/01/05 00:18:23;;;;;;;2.70;2.50;;;4.30;99.90;;;;;;4997871;28;20061;-73
2024/01/05 00:20:49;;;;;;;2.63;2.03;;;4.30;99.90;;;;;;4982115;28;20141;-74
2024/01/05 00:23:14;;;;;;;3.67;3.38;;;4.30;99.90;;;;;;4985409;28;20046;-74
2024/01/05 00:25:40;;;;;;;5.47;3.35;;;4.20;99.90;;;;;;4986959;28;20053;-74
2024/01/05 00:28:06;;;;;;;5.70;3.08;;;4.20;99.90;;;;;;4983111;28;20047;-74
2024/01/05 00:30:34;;;;;;;3.42;3.10;;;4.30;99.90;;;;;;4992362;28;20060;-74
2024/01/05 00:33:00;;;;;;;3.85;2.45;;;4.30;99.90;;;;;;5004635;28;20622;-74
2024/01/05 00:35:26;;;;;;;4.47;2.50;;;4.20;99.90;;;;;;5002446;28;20053;-73
2024/01/05 00:37:51;;;;;;;2.03;1.48;;;4.20;99.90;;;;;;4987291;28;20077;-75
2024/01/05 00:40:17;;;;;;;3.08;2.85;;;4.20;99.90;;;;;;5003701;28;20049;-74
2024/01/05 00:42:43;;;;;;;3.42;3.05;;;4.20;99.90;;;;;;5004144;28;20086;-74
2024/01/05 00:45:09;;;;;;;4.07;2.83;;;4.20;99.90;;;;;;5002941;28;20133;-74
2024/01/05 00:47:37;;;;;;;4.13;2.65;;;4.20;99.90;;;;;;5004192;28;20138;-74
2024/01/05 00:50:03;;;;;;;4.28;3.90;;;4.20;99.90;;;;;;5001772;28;20052;-73
2024/01/05 00:52:29;;;;;;;2.67;2.30;;;4.20;99.90;;;;;;5003893;28;20038;-74
2024/01/05 00:54:54;;;;;;;2.88;2.67;;;4.20;99.90;;;;;;5002816;28;20510;-74
2024/01/05 00:57:20;;;;;;;3.28;2.97;;;4.20;99.90;;;;;;4996234;28;20038;-74
2024/01/05 00:59:45;;;;;;;3.03;2.25;;;4.20;99.90;;;;;;4992322;28;20101;-74
2024/01/05 01:02:11;;;;;;;3.65;3.35;;;4.10;99.90;;;;;;4995356;28;20052;-74
2024/01/05 01:04:37;;;;;;;2.65;2.45;;;4.10;99.90;;;;;;5002327;28;20041;-74
2024/01/05 01:07:02;;;;;;;5.20;3.75;;;4.20;99.90;;;;;;4999456;28;20058;-74
2024/01/05 01:09:28;;;;;;;3.17;2.90;;;4.20;99.90;;;;;;4985843;28;20064;-74
2024/01/05 01:11:53;;;;;;;5.15;4.40;;;4.10;99.90;;;;;;4989136;28;20041;-74
2024/01/05 01:14:19;;;;;;;4.22;2.83;;;4.10;99.90;;;;;;4991522;28;20046;-73
2024/01/05 01:16:44;;;;;;;4.45;3.10;;;4.20;99.90;;;;;;4985781;28;20046;-74
2024/01/05 01:19:10;;;;;;;5.05;4.00;;;4.20;99.90;;;;;;4985585;28;20052;-74
2024/01/05 01:21:35;;;;;;;5.85;4.70;;;4.10;99.90;;;;;;4990566;28;20082;-74
2024/01/05 01:24:01;;;;;;;4.15;3.63;;;4.10;99.90;;;;;;4996063;28;20042;-74
2024/01/05 01:26:27;;;;;;;9.10;4.55;;;4.10;99.90;;;;;;4999153;28;20038;-74
2024/01/05 01:28:52;;;;;;;2.92;2.65;;;4.10;99.90;;;;;;4981793;28;20050;-74
2024/01/05 01:31:18;;;;;;;5.45;3.95;;;4.10;99.90;;;;;;4987049;28;20056;-74
2024/01/05 01:33:44;;;;;;;4.72;2.67;;;4.10;99.90;;;;;;4987862;28;20042;-73
2024/01/05 01:36:09;;;;;;;3.60;2.53;;;4.10;99.90;;;;;;4986380;28;20081;-74
2024/01/05 01:38:35;;;;;;;3.25;2.72;;;4.10;99.90;;;;;;4976491;28;20705;-74
2024/01/05 01:41:00;;;;;;;4.22;3.22;;;4.00;99.90;;;;;;4970811;28;20140;-74
2024/01/05 01:43:27;;;;;;;2.47;2.28;;;4.00;99.90;;;;;;4992693;28;20684;-74
2024/01/05 01:45:57;;;;;;;8.30;3.15;;;4.10;99.90;;;;;;4983327;28;20052;-74
2024/01/05 01:48:23;;;;;;;2.53;2.33;;;4.10;99.90;;;;;;4999553;28;20092;-75
2024/01/05 01:50:49;;;;;;;4.78;3.53;;;4.10;99.90;;;;;;5002561;28;20105;-75
2024/01/05 01:53:18;;;;;;;5.78;3.83;;;4.00;99.90;;;;;;5002114;28;20073;-75
2024/01/05 01:55:46;;;;;;;4.68;4.28;;;4.00;99.90;;;;;;4999388;28;20111;-75
2024/01/05 01:58:15;;;;;;;4.80;3.55;;;4.00;99.90;;;;;;4989569;28;20551;-74
2024/01/05 02:00:41;;;;;;;3.67;3.42;;;4.00;99.90;;;;;;4991968;28;20088;-75
2024/01/05 02:03:07;;;;;;;4.10;3.70;;;4.00;99.90;;;;;;4990772;28;20046;-75
2024/01/05 02:05:33;;;;;;;3.22;3.00;;;4.00;99.90;;;;;;4985330;28;20039;-73
2024/01/05 02:07:59;;;;;;;3.67;3.38;;;3.90;99.90;;;;;;4985221;28;20054;-74
2024/01/05 02:10:25;;;;;;;5.55;3.75;;;3.90;99.90;;;;;;4979502;28;20050;-75
2024/01/05 02:12:50;;;;;;;5.05;4.32;;;3.90;99.90;;;;;;5058258;23;20141;-77
2024/01/05 02:15:17;;;;;;;5.03;4.15;;;3.80;99.90;;;;;;4958627;28;20121;-76
2024/01/05 02:17:43;;;;;;;5.00;4.63;;;3.80;99.90;;;;;;4966440;28;20097;-76
2024/01/05 02:20:08;;;;;;;6.68;5.03;;;3.80;99.90;;;;;;4983331;28;20800;-76
2024/01/05 02:22:37;;;;;;;4.75;3.15;;;3.80;99.90;;;;;;4970143;28;20041;-76
2024/01/05 02:25:04;;;;;;;4.43;2.67;;;3.80;99.90;;;;;;4989070;28;20041;-76
2024/01/05 02:27:29;;;;;;;3.83;3.15;;;3.80;99.90;;;;;;4983042;28;20050;-76
2024/01/05 02:29:55;;;;;;;3.60;3.03;;;3.80;99.90;;;;;;5000979;28;20068;-76
2024/01/05 02:32:21;;;;;;;5.38;4.05;;;3.80;99.90;;;;;;5002500;28;20042;-76
2024/01/05 02:34:46;;;;;;;12.38;2.90;;;3.80;99.90;;;;;;4981806;28;20481;-76
2024/01/05 02:37:12;;;;;;;5.18;3.58;;;3.80;99.90;;;;;;4985876;28;20111;-76
2024/01/05 02:39:38;;;;;;;5.30;3.38;;;3.80;99.90;;;;;;4989015;28;20298;-76
2024/01/05 02:42:04;;;;;;;5.55;5.15;;;3.80;99.90;;;;;;4969287;28;20042;-76
2024/01/05 02:44:29;;;;;;;4.43;4.07;;;3.80;99.90;;;;;;4995436;28;20492;-76
2024/01/05 02:46:55;;;;;;;6.18;5.78;;;3.80;99.90;;;;;;4984754;28;20105;-77
2024/01/05 02:49:20;;;;;;;5.93;3.63;;;3.80;99.90;;;;;;4991497;28;20046;-77
2024/01/05 02:51:46;;;;;;;4.63;3.40;;;3.80;99.90;;;;;;4983295;28;20042;-76
2024/01/05 02:54:12;;;;;;;3.90;2.92;;;3.80;99.90;;;;;;4984204;28;20046;-77
2024/01/05 02:56:38;;;;;;;5.32;4.32;;;3.80;99.90;;;;;;4994859;28;20042;-76
2024/01/05 02:59:04;;;;;;;6.18;5.10;;;3.80;99.90;;;;;;4999472;28;20046;-76
2024/01/05 03:01:30;;;;;;;5.57;2.85;;;3.80;99.90;;;;;;4968925;28;20491;-76
2024/01/05 03:03:57;;;;;;;3.15;2.95;;;3.80;99.90;;;;;;4984029;28;20034;-76
2024/01/05 03:06:23;;;;;;;7.60;3.17;;;3.80;99.90;;;;;;4991826;28;20050;-76
2024/01/05 03:08:49;;;;;;;3.75;3.45;;;3.80;99.90;;;;;;5002905;28;20045;-76
2024/01/05 03:11:15;;;;;;;3.85;3.45;;;3.80;99.90;;;;;;4991627;28;20397;-76
2024/01/05 03:13:41;;;;;;;4.78;2.72;;;3.80;99.90;;;;;;4981735;28;20104;-76
2024/01/05 03:16:07;;;;;;;5.43;3.05;;;3.80;99.90;;;;;;4985318;28;20088;-76
2024/01/05 03:18:33;;;;;;;5.43;4.53;;;3.80;99.90;;;;;;4989598;28;20129;-77
2024/01/05 03:20:59;;;;;;;6.95;3.83;;;3.80;99.90;;;;;;4985154;28;20125;-75
2024/01/05 03:23:24;;;;;;;5.72;4.10;;;3.70;99.90;;;;;;4987041;28;20439;-76
2024/01/05 03:25:53;;;;;;;5.10;3.72;;;3.70;99.90;;;;;;4996284;28;20050;-77
2024/01/05 03:28:18;;;;;;;5.05;4.47;;;3.80;99.90;;;;;;4986141;28;20055;-76
2024/01/05 03:30:44;;;;;;;3.40;3.10;;;3.70;99.90;;;;;;4985494;28;20052;-76
2024/01/05 03:33:10;;;;;;;3.25;2.92;;;3.70;99.90;;;;;;4993756;28;20046;-76
2024/01/05 03:35:39;;;;;;;4.40;4.00;;;3.70;99.90;;;;;;4995648;28;20050;-76
2024/01/05 03:38:04;;;;;;;4.03;3.63;;;3.70;99.90;;;;;;4968943;28;20046;-76
2024/01/05 03:40:30;;;;;;;7.10;4.28;;;3.70;99.90;;;;;;4997360;28;20037;-76
2024/01/05 03:42:56;;;;;;;4.75;3.45;;;3.70;99.90;;;;;;4991499;28;20038;-76
2024/01/05 03:45:21;;;;;;;5.20;4.10;;;3.70;99.90;;;;;;4988349;28;20121;-76
2024/01/05 03:47:47;;;;;;;18.92;4.22;;;3.70;99.90;;;;;;4968984;28;20046;-76
2024/01/05 03:50:13;;;;;;;9.02;4.45;;;3.70;99.90;;;;;;4988831;28;20790;-76
2024/01/05 03:52:38;;;;;;;5.50;3.72;;;3.80;99.90;;;;;;4985905;28;20057;-76
2024/01/05 03:55:04;;;;;;;5.03;4.55;;;3.80;99.90;;;;;;4987692;28;20059;-75
2024/01/05 03:57:30;;;;;;;4.85;3.85;;;3.70;99.90;;;;;;5000556;28;20105;-76
2024/01/05 03:59:56;;;;;;;6.70;3.92;;;3.70;99.90;;;;;;4991663;28;20543;-76
2024/01/05 04:02:21;;;;;;;3.08;2.88;;;3.70;99.90;;;;;;4985477;28;20054;-76
2024/01/05 04:04:47;;;;;;;4.68;2.92;;;3.70;99.90;;;;;;4985899;28;20384;-76
2024/01/05 04:07:12;;;;;;;4.18;3.83;;;3.70;99.90;;;;;;4998242;28;20137;-76
2024/01/05 04:09:38;;;;;;;6.22;3.92;;;3.70;99.90;;;;;;4999545;28;20038;-76
2024/01/05 04:12:04;;;;;;;3.88;3.50;;;3.70;99.90;;;;;;4973275;28;20062;-76
2024/01/05 04:14:30;;;;;;;4.80;4.35;;;3.70;99.90;;;;;;4984873;28;20053;-76
2024/01/05 04:16:55;;;;;;;3.33;3.13;;;3.80;99.90;;;;;;4984336;28;20073;-76
2024/01/05 04:19:22;;;;;;;6.80;2.90;;;3.70;99.90;;;;;;4991878;28;20041;-76
2024/01/05 04:21:48;;;;;;;3.90;3.45;;;3.70;99.90;;;;;;4986672;28;20088;-75
2024/01/05 04:24:13;;;;;;;6.65;2.90;;;3.70;99.90;;;;;;4989876;28;20671;-77
2024/01/05 04:26:39;;;;;;;5.00;2.28;;;3.70;99.90;;;;;;4997687;28;20412;-76
2024/01/05 04:29:05;;;;;;;4.57;2.63;;;3.60;99.90;;;;;;4986929;28;20034;-76
2024/01/05 04:31:30;;;;;;;3.45;3.15;;;3.70;99.90;;;;;;4997151;28;20725;-76
2024/01/05 04:33:56;;;;;;;4.03;2.83;;;3.60;99.90;;;;;;5000880;28;20048;-76
2024/01/05 04:36:21;;;;;;;3.85;3.28;;;3.70;99.90;;;;;;5003702;28;20073;-76
2024/01/05 04:38:47;;;;;;;6.97;3.15;;;3.70;99.90;;;;;;5004955;28;20041;-76
2024/01/05 04:41:15;;;;;;;3.97;3.67;;;3.60;99.90;;;;;;4993430;28;20046;-76
2024/01/05 04:43:41;;;;;;;1.95;1.85;;;3.60;99.90;;;;;;4968276;28;20092;-76
2024/01/05 04:46:07;;;;;;;3.67;3.40;;;3.70;99.90;;;;;;4984302;28;20061;-76
2024/01/05 04:48:33;;;;;;;3.33;2.03;;;3.70;99.90;;;;;;5002360;28;20046;-76
2024/01/05 04:51:00;;;;;;;4.45;3.30;;;3.60;99.90;;;;;;4998620;28;20062;-75
2024/01/05 04:53:26;;;;;;;3.08;2.80;;;3.70;99.90;;;;;;4995550;28;20038;-76
2024/01/05 04:55:51;;;;;;;2.92;2.72;;;3.70;99.90;;;;;;4990145;28;20057;-76
2024/01/05 04:58:17;;;;;;;2.67;2.47;;;3.60;99.90;;;;;;4984414;28;20038;-76
2024/01/05 05:00:43;;;;;;;5.20;3.47;;;3.70;99.90;;;;;;4991351;28;20065;-76
2024/01/05 05:03:10;;;;;;;7.05;3.20;;;3.70;99.90;;;;;;4994180;28;20042;-76
2024/01/05 05:05:38;;;;;;;6.18;2.67;;;3.70;99.90;;;;;;4984228;28;20467;-76
2024/01/05 05:08:04;;;;;;;4.97;3.38;;;3.70;99.90;;;;;;4991871;28;20049;-76
2024/01/05 05:10:30;;;;;;;4.63;2.80;;;3.70;99.90;;;;;;4990269;28;20042;-76
2024/01/05 05:12:55;;;;;;;9.25;3.75;;;3.70;99.90;;;;;;4988987;28;20081;-76
2024/01/05 05:15:21;;;;;;;3.55;3.15;;;3.70;99.90;;;;;;4989259;28;20542;-77
2024/01/05 05:17:46;;;;;;;4.20;3.35;;;3.80;99.90;;;;;;4972765;28;20048;-76
2024/01/05 05:20:12;;;;;;;3.42;3.17;;;3.70;99.90;;;;;;4979957;28;20054;-76
2024/01/05 05:22:38;;;;;;;2.47;2.38;;;3.70;99.90;;;;;;4997343;28;20046;-76
2024/01/05 05:25:05;;;;;;;3.63;3.33;;;3.70;99.90;;;;;;4984972;28;20042;-76
2024/01/05 05:27:31;;;;;;;3.53;3.22;;;3.70;99.90;;;;;;4982750;28;20457;-76
2024/01/05 05:29:56;;;;;;;4.65;3.75;;;3.70;99.90;;;;;;4992601;28;20042;-76
2024/01/05 05:32:22;;;;;;;5.57;5.07;;;3.80;99.90;;;;;;5000965;28;20062;-76
2024/01/05 05:34:47;;;;;;;3.20;2.95;;;3.80;99.90;;;;;;5002980;28;20129;-76
2024/01/05 05:37:13;;;;;;;3.08;2.88;;;3.80;99.90;;;;;;4992019;28;20093;-76
2024/01/05 05:39:38;;;;;;;2.88;2.45;;;3.80;99.90;;;;;;4986780;28;20065;-76
2024/01/05 05:42:04;;;;;;;3.08;2.38;;;3.70;99.90;;;;;;4982823;28;20048;-76
2024/01/05 05:44:30;;;;;;;2.60;2.40;;;3.80;99.90;;;;;;4995318;28;20373;-76
2024/01/05 05:46:56;;;;;;;3.75;3.30;;;3.80;99.90;;;;;;4993172;28;20080;-76
2024/01/05 05:49:22;;;;;;;3.42;2.42;;;3.80;99.90;;;;;;4984243;28;20100;-76
2024/01/05 05:51:47;;;;;;;3.15;2.97;;;3.80;99.90;;;;;;5002642;28;20038;-76
2024/01/05 05:54:13;;;;;;;17.73;4.65;;;3.80;99.90;;;;;;5001997;28;20053;-76
2024/01/05 05:56:39;;;;;;;5.95;2.30;;;3.80;99.90;;;;;;4999769;28;20034;-76
2024/01/05 05:59:05;;;;;;;3.92;2.45;;;3.90;99.90;;;;;;4982353;28;20058;-76
2024/01/05 06:01:30;;;;;;;2.60;2.40;;;3.80;99.90;;;;;;4994017;28;20495;-76
2024/01/05 06:03:56;;;;;;;6.30;4.63;;;3.90;99.90;;;;;;5003014;28;20042;-76
2024/01/05 06:06:23;;;;;;;5.53;4.15;;;3.80;99.90;;;;;;5000590;28;20084;-76
2024/01/05 06:08:51;;;;;;;5.43;4.40;;;3.80;99.90;;;;;;4999007;28;20092;-76
2024/01/05 06:11:18;;;;;;;4.65;2.78;;;3.90;99.90;;;;;;4967562;28;20057;-77
2024/01/05 06:13:44;;;;;;;3.33;3.03;;;3.80;99.90;;;;;;4960039;28;20039;-78
2024/01/05 06:16:10;;;;;;;3.92;2.78;;;3.80;99.90;;;;;;4985424;28;20055;-77
2024/01/05 06:18:37;;;;;;;5.32;3.60;;;3.90;99.90;;;;;;5000810;28;20053;-77
2024/01/05 06:21:03;;;;;;;5.35;2.25;;;3.90;99.90;;;;;;4985701;28;20056;-77
2024/01/05 06:23:30;;;;;;;5.68;4.15;;;3.80;99.90;;;;;;4991502;28;20053;-76
2024/01/05 06:25:56;;;;;;;7.13;5.75;;;3.90;99.90;;;;;;4981110;28;20064;-76
2024/01/05 06:28:24;;;;;;;5.05;3.67;;;3.90;99.90;;;;;;4980140;28;20042;-77
2024/01/05 06:30:50;;;;;;;6.28;3.85;;;3.90;99.90;;;;;;4988715;28;20722;-77
2024/01/05 06:33:15;;;;;;;3.80;2.72;;;3.90;99.90;;;;;;4983771;28;20041;-76
2024/01/05 06:35:41;;;;;;;4.55;3.65;;;3.90;99.90;;;;;;4984538;28;20081;-76
2024/01/05 06:38:06;;;;;;;4.15;3.33;;;3.90;99.90;;;;;;4984488;28;20556;-76
2024/01/05 06:40:32;;;;;;;4.03;3.60;;;3.90;99.90;;;;;;4983735;28;20091;-77
2024/01/05 06:42:57;;;;;;;3.28;2.80;;;3.90;99.90;;;;;;4989890;28;20045;-76
2024/01/05 06:45:24;;;;;;;3.03;2.83;;;3.90;99.90;;;;;;4985888;28;20038;-77
2024/01/05 06:47:49;;;;;;;2.85;2.17;;;3.80;99.90;;;;;;4988827;28;20041;-78
2024/01/05 06:50:15;;;;;;;3.67;3.40;;;3.90;99.90;;;;;;4972832;28;20116;-76
2024/01/05 06:52:41;;;;;;;3.95;2.88;;;3.80;99.90;;;;;;4990313;28;20046;-74
2024/01/05 06:55:07;;;;;;;5.70;3.67;;;3.90;99.90;;;;;;4982434;28;20026;-75
2024/01/05 06:57:35;;;;;;;2.97;2.75;;;3.80;99.90;;;;;;4972789;28;20042;-76
2024/01/05 07:00:03;;;;;;;2.10;2.00;;;3.80;99.90;;;;;;4989410;28;20053;-76
2024/01/05 07:02:29;;;;;;;4.88;3.78;;;3.80;99.90;;;;;;4982730;28;20101;-77
2024/01/05 07:04:54;;;;;;;5.05;4.25;;;3.80;99.90;;;;;;4985510;28;20034;-76
2024/01/05 07:07:20;;;;;;;5.22;4.82;;;3.90;99.90;;;;;;5001063;28;20104;-76
2024/01/05 07:09:46;;;;;;;9.77;3.17;;;3.90;99.90;;;;;;4972129;28;20555;-75
2024/01/05 07:12:11;;;;;;;4.22;3.90;;;3.90;99.90;;;;;;4986210;28;20069;-76
2024/01/05 07:14:37;;;;;;;5.10;3.75;;;3.90;99.90;;;;;;4984032;28;20058;-76
2024/01/05 07:17:03;;;;;;;3.60;2.67;;;3.90;99.90;;;;;;4970257;28;20061;-76
2024/01/05 07:19:28;;;;;;;3.15;2.90;;;3.90;99.90;;;;;;4971824;28;20050;-75
2024/01/05 07:21:54;;;;;;;3.53;3.25;;;3.90;99.90;;;;;;4983539;28;20054;-77
2024/01/05 07:24:19;;;;;;;3.05;2.83;;;3.90;99.90;;;;;;4976194;28;20685;-80
2024/01/05 07:26:45;;;;;;;5.20;4.75;;;3.90;99.90;;;;;;4967134;28;20050;-76
2024/01/05 07:29:11;;;;;;;4.25;3.80;;;3.90;99.90;;;;;;4983380;28;20057;-76
2024/01/05 07:31:36;;;;;;;4.03;3.50;;;3.90;99.90;;;;;;4990047;28;20066;-76
2024/01/05 07:34:03;;;;;;;4.35;3.95;;;3.90;99.90;;;;;;4965358;28;20145;-76
2024/01/05 07:36:29;;;;;;;4.45;3.97;;;3.90;99.90;;;;;;4997270;28;20041;-76
2024/01/05 07:38:58;;;;;;;4.88;4.47;;;4.00;99.90;;;;;;5001426;28;20130;-75
2024/01/05 07:41:25;;;;;;;4.55;2.78;;;3.90;99.90;;;;;;4992587;28;20103;-77
2024/01/05 07:43:51;;;;;;;4.38;3.22;;;4.00;99.90;;;;;;4991958;28;20050;-77
2024/01/05 07:46:17;;;;;;;4.80;4.40;;;4.00;99.90;;;;;;4982933;28;20054;-76
2024/01/05 07:48:43;;;;;;;5.57;4.15;;;4.00;99.90;;;;;;4984339;28;20344;-76
2024/01/05 07:51:11;;;;;;;4.40;3.20;;;4.00;99.90;;;;;;4989496;28;20058;-76
2024/01/05 07:53:36;;;;;;;3.60;2.80;;;4.00;99.90;;;;;;4995376;28;20037;-76
2024/01/05 07:56:03;;;;;;;12.07;6.10;;;4.00;99.90;;;;;;4985198;28;20046;-76
2024/01/05 07:58:29;;;;;;;4.55;3.75;;;4.00;99.90;;;;;;4993626;28;20046;-76
2024/01/05 08:00:56;;;;;;;3.70;2.97;;;4.00;99.90;;;;;;4988879;28;20547;-76
2024/01/05 08:03:22;;;;;;;5.25;3.95;;;4.00;99.90;;;;;;4994327;28;20046;-76
2024/01/05 08:05:48;;;;;;;7.45;3.33;;;4.10;99.90;;;;;;4984090;28;20054;-76
2024/01/05 08:08:14;;;;;;;6.60;5.90;;;4.10;99.90;;;;;;4985021;28;20477;-76
2024/01/05 08:10:39;;;;;;;5.97;3.38;;;4.10;99.90;;;;;;4983479;28;20511;-75
2024/01/05 08:13:05;;;;;;;5.65;3.55;;;4.10;99.90;;;;;;4986252;28;20050;-76
2024/01/05 08:15:31;;;;;;;7.38;4.97;;;4.10;99.90;;;;;;4987480;28;20481;-76
2024/01/05 08:17:57;;;;;;;7.55;5.32;;;4.10;99.90;;;;;;4985763;28;20042;-76
2024/01/05 08:20:22;;;;;;;5.65;3.63;;;4.10;99.90;;;;;;4984483;28;20104;-77
2024/01/05 08:22:48;;;;;;;2.85;2.65;;;4.20;99.90;;;;;;4987649;28;20054;-76
2024/01/05 08:25:14;;;;;;;5.22;4.47;;;4.20;99.90;;;;;;4995242;28;20037;-76
2024/01/05 08:27:40;;;;;;;7.13;4.47;;;4.20;99.90;;;;;;5003056;28;20239;-76
2024/01/05 08:30:07;;;;;;;5.45;4.40;;;4.20;99.90;;;;;;4986627;28;20451;-76
2024/01/05 08:32:33;;;;;;;9.25;3.38;;;4.20;99.90;;;;;;4984381;28;20050;-76
2024/01/05 08:34:59;;;;;;;5.43;4.28;;;4.30;99.90;;;;;;4984628;28;20057;-76
2024/01/05 08:37:25;;;;;;;4.95;3.85;;;4.30;99.90;;;;;;4993614;28;20046;-75
2024/01/05 08:39:51;;;;;;;18.38;5.63;;;4.30;99.90;;;;;;4994107;28;20117;-77
2024/01/05 08:42:16;;;;;;;7.25;4.95;;;4.30;99.90;;;;;;4974153;28;20819;-76
2024/01/05 08:44:43;;;;;;;6.63;4.05;;;4.30;99.90;;;;;;4977825;28;20046;-76
2024/01/05 08:47:09;;;;;;;6.82;4.88;;;4.30;99.90;;;;;;4994729;28;20099;-75
2024/01/05 08:49:34;;;;;;;4.30;3.28;;;4.30;99.90;;;;;;4967229;28;20069;-74
2024/01/05 08:52:00;;;;;;;4.90;3.78;;;4.30;99.90;;;;;;4982826;28;20034;-75
2024/01/05 08:54:26;;;;;;;5.43;4.40;;;4.30;99.90;;;;;;4983008;28;20073;-75
2024/01/05 08:56:52;;;;;;;3.97;3.67;;;4.30;99.90;;;;;;4985470;28;20435;-76
2024/01/05 08:59:18;;;;;;;8.35;3.80;;;4.30;99.90;;;;;;4985376;28;20050;-77
2024/01/05 09:01:44;;;;;;;7.88;4.20;;;4.40;99.90;;;;;;4986946;28;20425;-76
2024/01/05 09:04:13;;;;;;;6.05;4.97;;;4.40;99.90;;;;;;4986505;28;20057;-75
2024/01/05 09:06:39;;;;;;;5.53;4.45;;;4.40;99.90;;;;;;5002613;28;20050;-76
2024/01/05 09:09:05;;;;;;;5.40;4.28;;;4.30;99.90;;;;;;4992271;28;20274;-75
2024/01/05 09:11:31;;;;;;;5.20;4.05;;;4.30;99.90;;;;;;4964377;28;20184;-75
2024/01/05 09:13:56;;;;;;;7.43;5.20;;;4.40;99.90;;;;;;4979615;28;20548;-76
2024/01/05 09:16:22;;;;;;;4.82;3.95;;;4.40;99.90;;;;;;4992705;28;20038;-74
2024/01/05 09:18:49;;;;;;;5.90;5.40;;;4.40;99.90;;;;;;4994930;28;20096;-75
2024/01/05 09:21:15;;;;;;;5.55;4.97;;;4.40;99.90;;;;;;4972434;28;20501;-75
2024/01/05 09:23:41;;;;;;;5.10;3.40;;;4.40;99.90;;;;;;4963997;28;20121;-75
2024/01/05 09:26:16;;;;;;;3.55;3.30;;;4.40;99.90;;;;;;4978763;28;20122;-75
2024/01/05 09:28:42;;;;;;;4.85;4.45;;;4.50;99.90;;;;;;4980860;28;20050;-75
2024/01/05 09:31:09;;;;;;;10.15;4.30;;;4.50;99.90;;;;;;4980600;28;20571;-75
2024/01/05 09:33:35;;;;;;;3.47;2.53;;;4.50;99.90;;;;;;5015971;28;20046;-75
2024/01/05 09:36:02;;;;;;;4.47;2.78;;;4.50;99.90;;;;;;4991241;28;20042;-75
2024/01/05 09:38:27;;;;;;;6.82;3.95;;;4.50;99.90;;;;;;4982013;28;20250;-75
2024/01/05 09:40:54;;;;;;;4.93;3.45;;;4.60;99.90;;;;;;4986032;28;20496;-76
2024/01/05 09:43:24;;;;;;;18.02;3.75;;;4.60;99.90;;;;;;4973636;28;20042;-77
2024/01/05 09:45:53;;;;;;;4.00;2.65;;;4.60;99.90;;;;;;4965240;28;20121;-76
2024/01/05 09:48:20;;;;;;;6.50;4.70;;;4.60;99.90;;;;;;4998201;28;20042;-75
2024/01/05 09:50:53;;;;;;;5.68;3.95;;;4.60;99.90;;;;;;4985888;28;20042;-75
2024/01/05 09:53:19;;;;;;;6.18;5.25;;;4.60;99.90;;;;;;4994559;28;20172;-75
2024/01/05 09:55:49;;;;;;;7.32;5.45;;;4.70;99.90;;;;;;4983432;28;20491;-75
2024/01/05 09:58:15;;;;;;;6.25;5.05;;;4.60;99.90;;;;;;4965432;28;20047;-75
2024/01/05 10:00:44;;;;;;;7.93;5.57;;;4.60;99.90;;;;;;4985690;28;20078;-75
2024/01/05 10:03:14;;;;;;;11.25;4.93;;;4.70;99.90;;;;;;4982351;28;20136;-75
2024/01/05 10:05:40;;;;;;;6.55;4.10;;;4.60;99.90;;;;;;4985126;28;20049;-76
2024/01/05 10:08:06;;;;;;;6.88;4.20;;;4.70;99.90;;;;;;4985836;28;20038;-76
2024/01/05 10:10:49;;;;;;;7.28;5.53;;;4.70;99.90;;;;;;5001491;28;20582;-76
2024/01/05 10:13:16;;;;;;;5.85;5.35;;;4.70;99.90;;;;;;4990106;28;20057;-75
2024/01/05 10:16:02;;;;;;;7.95;3.97;;;4.70;99.90;;;;;;4982028;28;20046;-76
2024/01/05 10:18:29;;;;;;;4.53;4.00;;;4.70;99.90;;;;;;4981574;28;20053;-76
2024/01/05 10:20:55;;;;;;;4.93;4.15;;;4.70;99.90;;;;;;4965405;28;20073;-76
2024/01/05 10:23:21;;;;;;;5.20;4.63;;;4.70;99.90;;;;;;4982135;28;20085;-76
2024/01/05 10:25:47;;;;;;;7.45;6.75;;;4.70;99.90;;;;;;4976537;28;20548;-75
2024/01/05 10:28:23;;;;;;;8.25;4.68;;;4.70;99.90;;;;;;4981837;28;20108;-75
2024/01/05 10:30:49;;;;;;;6.57;5.50;;;4.70;99.90;;;;;;4986024;28;20125;-75
2024/01/05 10:33:16;;;;;;;9.68;4.97;;;4.70;99.90;;;;;;5000907;28;20132;-75
2024/01/05 10:35:42;;;;;;;7.80;4.07;;;4.70;99.90;;;;;;4986252;28;20169;-75
2024/01/05 10:38:10;;;;;;;4.55;4.05;;;4.80;99.90;;;;;;4980513;28;20517;-75
2024/01/05 10:40:36;;;;;;;6.97;3.58;;;4.80;99.90;;;;;;4963093;28;20100;-75
2024/01/05 10:43:11;;;;;;;5.70;5.00;;;4.80;99.90;;;;;;4981729;28;20437;-75
2024/01/05 10:45:38;;;;;;;3.70;2.88;;;4.80;99.90;;;;;;4980086;28;20105;-75
2024/01/05 10:48:11;;;;;;;5.68;3.65;;;4.80;99.90;;;;;;4987362;28;20030;-75
2024/01/05 10:50:37;;;;;;;5.35;4.45;;;4.80;99.90;;;;;;4985400;28;20049;-75
2024/01/05 10:53:05;;;;;;;6.13;5.32;;;4.80;99.90;;;;;;4997332;28;20707;-75
2024/01/05 10:55:35;;;;;;;6.50;3.22;;;4.90;99.90;;;;;;4999863;28;20539;-75
2024/01/05 10:58:01;;;;;;;5.90;5.38;;;4.90;99.90;;;;;;4996492;28;20117;-75
2024/01/05 11:00:27;;;;;;;4.45;3.08;;;4.90;99.90;;;;;;4991286;28;20457;-75
2024/01/05 11:03:08;;;;;;;7.93;5.32;;;4.90;99.90;;;;;;4964883;28;20070;-76
2024/01/05 11:05:35;;;;;;;4.30;3.90;;;5.00;99.90;;;;;;4980226;28;20042;-76
2024/01/05 11:08:02;;;;;;;8.13;6.25;;;5.00;99.90;;;;;;4964113;28;20026;-76
2024/01/05 11:11:00;;;;;;;5.72;3.30;;;5.00;99.90;;;;;;4996681;28;20049;-76
2024/01/05 11:13:55;;;;;;;4.93;4.18;;;5.00;99.90;;;;;;4961650;28;20042;-76
2024/01/05 11:17:06;;;;;;;7.55;5.18;;;5.10;99.90;;;;;;5012437;28;20073;-75
2024/01/05 11:19:56;;;;;;;5.00;3.63;;;5.10;99.90;;;;;;4979594;28;20043;-75
2024/01/05 11:22:29;;;;;;;6.97;5.32;;;5.20;99.90;;;;;;4964469;28;20042;-76
2024/01/05 11:24:57;;;;;;;5.82;4.32;;;5.10;99.90;;;;;;4979701;28;20042;-75
2024/01/05 11:27:33;;;;;;;6.20;4.03;;;5.10;99.90;;;;;;4987280;28;20088;-74
2024/01/05 11:30:00;;;;;;;6.43;2.60;;;5.10;99.90;;;;;;4980741;28;20065;-75
2024/01/05 11:32:46;;;;;;;6.13;4.70;;;5.20;99.90;;;;;;4982520;28;20334;-75
2024/01/05 11:35:20;;;;;;;5.13;2.65;;;5.20;99.90;;;;;;4981454;28;20121;-76
2024/01/05 11:37:50;;;;;;;8.98;5.55;;;5.20;99.90;;;;;;4985618;28;20031;-75
2024/01/05 11:40:32;;;;;;;12.77;10.48;;;5.30;99.90;;;;;;4987529;28;20060;-75
2024/01/05 11:43:19;;;;;;;11.60;7.82;;;5.30;99.90;;;;;;4974593;28;20044;-74
2024/01/05 11:45:44;;;;;;;16.42;8.77;;;5.30;99.90;;;;;;4989315;28;20096;-74
2024/01/05 11:48:10;;;;;;;7.63;4.55;;;5.40;99.90;;;;;;5001687;28;20054;-74
2024/01/05 11:50:37;;;;;;;9.02;6.50;;;5.40;99.90;;;;;;4999047;28;20096;-74
2024/01/05 11:53:16;;;;;;;8.32;7.30;;;5.40;99.90;;;;;;4988947;28;20042;-74
2024/01/05 11:55:48;;;;;;;7.35;5.25;;;5.40;99.90;;;;;;4972591;28;20092;-75
2024/01/05 11:58:21;;;;;;;5.55;4.25;;;5.50;99.90;;;;;;4984799;28;20339;-73
2024/01/05 12:00:47;;;;;;;6.22;5.70;;;5.60;99.90;;;;;;4992356;28;20054;-73
2024/01/05 12:03:14;;;;;;;7.97;3.83;;;5.50;99.90;;;;;;4991300;28;20058;-72
2024/01/05 12:05:39;;;;;;;4.30;3.80;;;5.50;99.90;;;;;;5009886;28;20606;-73
2024/01/05 12:08:08;;;;;;;5.00;2.63;;;5.50;99.90;;;;;;5015609;28;20086;-72
2024/01/05 12:10:34;;;;;;;6.57;4.18;;;5.50;99.90;;;;;;4990556;28;20068;-72
2024/01/05 12:13:00;;;;;;;5.63;3.70;;;5.60;99.90;;;;;;4977246;28;20061;-72
2024/01/05 12:15:27;;;;;;;7.50;4.13;;;5.50;99.90;;;;;;4999801;28;20045;-72
2024/01/05 12:18:03;;;;;;;5.93;4.38;;;5.50;99.90;;;;;;5000290;28;20042;-72
2024/01/05 12:20:32;;;;;;;4.68;3.83;;;5.50;99.90;;;;;;4998179;28;20539;-73
2024/01/05 12:22:58;;;;;;;13.55;3.97;;;5.50;99.90;;;;;;4989007;28;20382;-73
2024/01/05 12:25:23;;;;;;;13.18;5.20;;;5.50;99.90;;;;;;5003833;28;20348;-73
2024/01/05 12:27:50;;;;;;;3.88;3.40;;;5.50;99.90;;;;;;4991563;28;20030;-75
2024/01/05 12:30:16;;;;;;;5.05;4.60;;;5.50;99.90;;;;;;4984580;28;20144;-72
2024/01/05 12:32:43;;;;;;;6.70;4.13;;;5.50;99.90;;;;;;4988970;28;20086;-72
2024/01/05 12:35:10;;;;;;;3.78;3.20;;;5.50;99.90;;;;;;4983258;28;20077;-72
2024/01/05 12:37:35;;;;;;;6.57;5.38;;;5.50;99.90;;;;;;4984441;28;20047;-73
2024/01/05 12:40:11;;;;;;;8.77;4.15;;;5.50;99.90;;;;;;4965720;28;20053;-73
2024/01/05 12:42:38;;;;;;;6.30;3.38;;;5.50;99.90;;;;;;4983088;28;20046;-72
2024/01/05 12:45:10;;;;;;;8.85;4.15;;;5.50;99.90;;;;;;4984860;28;20042;-73
2024/01/05 12:47:36;;;;;;;7.57;5.35;;;5.50;99.90;;;;;;4989064;28;20043;-72
2024/01/05 12:50:03;;;;;;;4.82;3.25;;;5.60;99.90;;;;;;4972199;28;20228;-72
2024/01/05 12:52:38;;;;;;;5.30;3.72;;;5.60;99.90;;;;;;4989445;28;20333;-72
2024/01/05 12:55:04;;;;;;;4.15;3.50;;;5.50;99.90;;;;;;4985727;28;20064;-72
2024/01/05 12:57:34;;;;;;;4.85;3.63;;;5.60;99.90;;;;;;4982582;28;20078;-73